Latest Coastal Weather Observations for Flinders Island Airport

IDV60701

Issued at 8:21 am EST Friday 29 May 2015 (issued every 10 minutes, with the page automatically refreshed every 10 minutes)

About coastal observations | Map of coastal stations | Coastal observations for VIC | Marine services | Other Formats
Station Details ID: 099005 Name: FLINDERS ISLAND AIRPORT Lat: -40.09 Lon: 148.00 Height: 9.0 m
Data from the previous 72 hours. | See also: Recent months at Flinders Island Airport
Date/Time
EST
Temp

°C
Wind Pressure Rain
since 9am
mm
Weather Cloud Vis
km
Sea
Height
m
Swell
Dir
 
Speed
knots
Gust
knots
hPa Trend Height
m
Period
s
Dir
29/08:00am 10.8 W 19 26 1016.5 - 11.8 - Partly cloudy 10 - - - -
29/07:50am 10.3 W 21 31 1016.3 - 11.8 - Partly cloudy 10 - - - -
29/07:30am 11.2 W 24 29 1016.1 - 11.8 - Partly cloudy 10 - - - -
29/07:16am 10.3 W 20 25 1016.0 - 11.8 - Partly cloudy 10 - - - -
29/07:00am 10.0 WSW 24 33 1015.7 - 11.8 - Partly cloudy 5 - - - -
29/06:30am 10.1 WSW 23 33 1015.4 - 11.4 - Partly cloudy 7 - - - -
29/06:19am 11.7 WSW 26 39 1014.9 - 11.4 - Partly cloudy 10 - - - -
29/06:00am 12.4 W 27 34 1014.7 - 11.4 - Mostly cloudy 10 - - - -
29/05:30am 12.4 W 23 29 1014.2 - 11.4 - Partly cloudy 10 - - - -
29/05:00am 12.4 W 23 30 1013.9 - 11.4 - Partly cloudy 10 - - - -
29/04:30am 12.3 W 24 34 1013.5 - 11.4 - Partly cloudy 10 - - - -
29/04:04am 12.0 W 22 32 1013.3 - 11.4 - Partly cloudy 10 - - - -
29/04:00am 12.0 W 21 29 1013.3 - 11.4 - Partly cloudy 10 - - - -
29/03:30am 11.5 W 26 36 1013.2 - 11.4 - Partly cloudy 10 - - - -
29/03:17am 12.2 W 23 33 1013.1 - 11.4 - Partly cloudy 10 - - - -
29/03:00am 12.3 W 23 30 1013.0 - 11.4 - Partly cloudy 10 - - - -
29/02:37am 12.8 W 25 37 1012.7 - 11.4 - Partly cloudy 10 - - - -
29/02:30am 12.9 W 23 29 1012.8 - 11.4 - Partly cloudy 10 - - - -
29/02:00am 13.0 W 22 30 1012.5 - 11.4 - Partly cloudy 10 - - - -
29/01:55am 12.8 W 21 31 1012.5 - 11.4 - Partly cloudy 10 - - - -
29/01:30am 13.0 WNW 19 26 1012.4 - 11.4 - Partly cloudy 10 - - - -
29/01:00am 12.4 WNW 17 22 1012.3 - 11.4 - Partly cloudy 10 - - - -
29/12:30am 12.2 WNW 17 25 1012.6 - 11.4 - Partly cloudy 10 - - - -
29/12:00am 11.9 WNW 17 27 1012.6 - 11.4 Recent precip. Cloudy 10 - - - -
 
Date/Time
EST
Temp

°C
Wind Pressure Rain
since 9am
mm
Weather Cloud Vis
km
Sea
Height
m
Swell
Dir
 
Speed
knots
Gust
knots
hPa Trend Height
m
Period
s
Dir
28/11:37pm 11.9 WNW 17 27 1012.8 - 11.4 - Partly cloudy 10 - - - -
28/11:30pm 11.6 WNW 18 23 1012.9 - 11.4 - Partly cloudy 10 - - - -
28/11:22pm 11.4 W 20 30 1012.9 - 11.4 - Partly cloudy 10 - - - -
28/11:16pm 11.4 W 24 31 1012.9 - 11.4 - Partly cloudy 10 - - - -
28/11:09pm 11.6 W 26 31 1012.9 - 11.2 - Partly cloudy 7 - - - -
28/11:00pm 11.8 W 21 28 1012.9 - 11.2 - Partly cloudy 3 - - - -
28/10:57pm 11.8 W 20 27 1012.9 - 11.0 - Partly cloudy 3 - - - -
28/10:54pm 12.0 WNW 19 27 1012.9 - 10.6 - Partly cloudy 5 - - - -
28/10:30pm 12.6 W 17 22 1012.4 - 9.8 - Partly cloudy 10 - - - -
28/10:00pm 12.8 W 16 21 1012.5 - 9.8 - Partly cloudy 10 - - - -
28/09:56pm 12.8 W 16 21 1012.5 - 9.8 - Partly cloudy 10 - - - -
28/09:39pm 13.0 W 15 18 1012.3 - 9.8 - Partly cloudy 10 - - - -
28/09:30pm 12.9 WNW 15 19 1012.4 - 9.8 - Partly cloudy 10 - - - -
28/09:02pm 12.8 W 14 18 1012.2 - 9.8 - Partly cloudy 10 - - - -
28/09:00pm 12.8 W 14 18 1012.2 - 9.8 Recent precip. Mostly cloudy 10 - - - -
28/08:58pm 12.8 W 14 19 1012.2 - 9.8 - Partly cloudy 10 - - - -
28/08:48pm 12.9 WNW 15 22 1012.2 - 9.8 - Partly cloudy 4 - - - -
28/08:30pm 13.1 WNW 14 19 1012.3 - 7.4 - Partly cloudy - - - - -
28/08:11pm 12.5 NW 10 12 1012.3 - 6.2 - Partly cloudy - - - - -
28/08:01pm 12.4 NW 11 15 1012.3 - 6.0 - Partly cloudy - - - - -
28/08:00pm 12.4 NW 11 15 1012.3 - 6.0 - Partly cloudy - - - - -
28/07:48pm 12.2 WNW 14 20 1012.3 - 5.6 - Partly cloudy 4 - - - -
28/07:33pm 12.2 W 20 30 1012.3 - 3.6 - Partly cloudy 5 - - - -
28/07:30pm 13.0 WNW 19 30 1012.4 - 1.6 - Partly cloudy 10 - - - -
28/07:05pm 14.4 NNW 15 25 1011.3 - 0.6 - Partly cloudy 10 - - - -
28/07:00pm 14.4 NW 14 19 1011.4 - 0.6 - Partly cloudy 10 - - - -
28/06:47pm 15.3 NW 15 25 1011.1 - 0.4 - Partly cloudy 7 - - - -
28/06:30pm 16.5 NNW 13 19 1010.8 - 0.0 - Partly cloudy 10 - - - -
28/06:00pm 16.7 NNW 12 19 1010.9 - 0.0 - Mostly clear 10 - - - -
28/05:30pm 16.8 NNW 15 21 1011.0 - 0.0 - Partly cloudy 10 - - - -
28/05:00pm 17.4 NNW 13 21 1010.8 - 0.0 - Partly cloudy 10 - - - -
28/04:30pm 17.2 NNW 15 21 1010.9 - 0.0 - Cloudy 10 - - - -
28/04:00pm 17.1 NNW 11 17 1011.2 - 0.0 - Cloudy 10 - - - -
28/03:30pm 17.1 NNW 10 15 1011.6 - 0.0 - Cloudy 10 - - - -
28/03:00pm 17.4 NW 13 19 1011.8 - 0.0 - Cloudy 10 - - - -
28/02:30pm 17.9 NW 15 22 1012.0 - 0.0 - Partly cloudy 10 - - - -
28/02:00pm 17.8 NW 17 23 1012.2 - 0.0 - Partly cloudy 10 - - - -
28/01:30pm 18.5 NW 18 26 1012.6 - 0.0 - - 10 - - - -
28/01:03pm 18.5 NNW 15 25 1012.8 - 0.0 - Partly cloudy 10 - - - -
28/01:00pm 18.5 NNW 15 22 1012.8 - 0.0 - Partly cloudy 10 - - - -
28/12:30pm 17.9 NNW 16 23 1013.2 - 0.0 - Cloudy 10 - - - -
28/12:00pm 18.0 NNW 17 27 1013.8 - 0.0 - Mostly cloudy 10 - - - -
28/11:51am 18.2 NNW 15 27 1013.9 - 0.0 - Cloudy 10 - - - -
28/11:30am 17.8 NNW 15 24 1014.3 - 0.0 - Cloudy 10 - - - -
28/11:00am 17.5 NNW 14 19 1014.7 - 0.0 - Partly cloudy 10 - - - -
28/10:30am 17.3 NNW 13 19 1015.1 - 0.0 - Partly cloudy 10 - - - -
28/10:00am 17.2 NNW 13 19 1015.2 - 0.0 - Partly cloudy 10 - - - -
28/09:30am 17.2 NNW 11 20 1015.4 - 0.0 - Partly cloudy 10 - - - -
28/09:00am 16.7 NNW 12 16 1015.7 - 0.0 - Cloudy 10 - - - -
28/08:30am 16.2 NNW 13 19 1015.8 - 0.0 - Partly cloudy 10 - - - -
28/08:00am 15.8 NNW 12 17 1015.7 - 0.0 - Partly cloudy 10 - - - -
28/07:30am 15.5 NNW 11 18 1015.6 - 0.0 - Partly cloudy 10 - - - -
28/07:00am 15.7 NNW 12 16 1015.6 - 0.0 - Partly cloudy 10 - - - -
28/06:30am 15.5 NNW 11 18 1015.5 - 0.0 - Partly cloudy 10 - - - -
28/06:00am 15.6 NNW 12 18 1015.3 - 0.0 - Cloudy 10 - - - -
28/05:30am 15.5 NNW 11 16 1015.3 - 0.0 - Cloudy 10 - - - -
28/05:00am 15.4 NNW 11 17 1015.5 - 0.0 - - 10 - - - -
28/04:30am 15.4 NNW 11 16 1015.6 - 0.0 - Partly cloudy 10 - - - -
28/04:00am 15.9 NNW 13 19 1015.7 - 0.0 - Partly cloudy 10 - - - -
28/03:30am 16.1 NNW 13 20 1015.9 - 0.0 - Partly cloudy 10 - - - -
28/03:00am 15.9 NNW 13 19 1016.0 - 0.0 - Partly cloudy 10 - - - -
28/02:30am 16.4 NNW 11 18 1016.2 - 0.0 - Cloudy 10 - - - -
28/02:00am 16.5 NNW 12 19 1016.3 - 0.0 - Partly cloudy 10 - - - -
28/01:30am 16.3 NNW 12 17 1016.4 - 0.0 - Cloudy 10 - - - -
28/01:00am 16.0 NNW 11 17 1016.5 - 0.0 - Cloudy 10 - - - -
28/12:30am 15.6 NNW 11 15 1016.6 - 0.0 - Partly cloudy 10 - - - -
28/12:00am 15.3 NNW 13 19 1017.0 - 0.0 - Mostly clear 10 - - - -
 
Date/Time
EST
Temp

°C
Wind Pressure Rain
since 9am
mm
Weather Cloud Vis
km
Sea
Height
m
Swell
Dir
 
Speed
knots
Gust
knots
hPa Trend Height
m
Period
s
Dir
27/11:30pm 15.3 NNW 11 16 1017.2 - 0.0 - - 10 - - - -
27/11:00pm 15.5 NNW 11 16 1017.2 - 0.0 - - 10 - - - -
27/10:30pm 15.3 NNW 10 15 1017.3 - 0.0 - Partly cloudy 10 - - - -
27/10:00pm 15.0 N 7 12 1017.4 - 0.0 - Partly cloudy 10 - - - -
27/09:30pm 14.7 NNW 9 13 1017.6 - 0.0 - Partly cloudy 10 - - - -
27/09:00pm 15.1 NNW 7 10 1017.6 - 0.0 - Mostly clear 10 - - - -
27/08:30pm 15.5 NNW 9 16 1017.8 - 0.0 - Partly cloudy 10 - - - -
27/08:00pm 14.2 N 7 10 1017.8 - 0.0 - Partly cloudy 10 - - - -
27/07:30pm 14.0 N 7 8 1017.7 - 0.0 - Partly cloudy 10 - - - -
27/07:00pm 14.5 NNW 8 12 1017.7 - 0.0 - Partly cloudy 10 - - - -
27/06:30pm 14.6 N 7 11 1017.5 - 0.0 - Partly cloudy 10 - - - -
27/06:00pm 14.7 N 7 9 1017.3 - 0.0 - Cloudy 10 - - - -
27/05:30pm 14.7 N 8 11 1017.3 - 0.0 - Partly cloudy 10 - - - -
27/05:00pm 14.6 N 5 7 1017.1 - 0.0 - Partly cloudy 10 - - - -
27/04:30pm 15.4 N 6 10 1017.3 - 0.0 - Partly cloudy 10 - - - -
27/04:00pm 15.4 N 6 9 1017.3 - 0.0 - Partly cloudy 10 - - - -
27/03:30pm 15.7 NNW 7 9 1017.4 - 0.0 - Partly cloudy 10 - - - -
27/03:00pm 15.8 NNW 8 13 1017.5 - 0.0 - Mostly cloudy 10 - - - -
27/02:30pm 15.4 N 6 9 1017.6 - 0.0 - Partly cloudy 10 - - - -
27/02:00pm 15.0 N 6 8 1017.8 - 0.0 - Partly cloudy 10 - - - -
27/01:30pm 15.2 NNW 8 12 1018.1 - 0.0 - Partly cloudy 10 - - - -
27/01:00pm 15.7 NNW 7 10 1018.8 - 0.0 - Partly cloudy 10 - - - -
27/12:30pm 15.4 N 7 10 1019.3 - 0.0 - Cloudy 10 - - - -
27/12:00pm 15.4 N 11 16 1019.6 - 0.0 - Cloudy 10 - - - -
27/11:30am 15.4 N 12 17 1019.9 - 0.0 - Partly cloudy 10 - - - -
27/11:00am 15.6 NNE 17 20 1020.3 - 0.0 - Partly cloudy 10 - - - -
27/10:30am 14.8 NNE 16 20 1020.5 - 0.0 - Partly cloudy 10 - - - -
27/10:00am 13.9 NNE 15 19 1020.6 - 0.0 - Partly cloudy 10 - - - -
27/09:30am 13.7 NNE 16 20 1020.8 - 0.0 - Partly cloudy 10 - - - -
27/09:00am 13.4 NNE 14 17 1021.0 - 0.0 - Cloudy 10 - - - -
27/08:30am 12.2 NE 9 14 1021.0 - 0.0 - Partly cloudy 10 - - - -
27/08:00am 12.3 NNE 6 10 1021.2 - 0.0 - Partly cloudy 10 - - - -
27/07:30am 11.5 NE 9 11 1021.0 - 0.0 - - 10 - - - -
27/07:00am 10.6 SE 2 4 1021.1 - 0.0 - Partly cloudy - - - - -
27/06:30am 7.5 CALM 0 4 1021.3 - 0.0 - - 10 - - - -
27/06:00am 8.0 CALM 0 1 1021.5 - 0.0 - Cloudy 10 - - - -
27/05:30am 8.5 ENE 4 6 1021.4 - 0.0 - Partly cloudy - - - - -
27/05:00am 7.0 ENE 5 6 1021.8 - 0.0 - Partly cloudy 4 - - - -
27/04:58am 7.2 ENE 5 6 1021.8 - 0.0 - Partly cloudy 5 - - - -
27/04:39am 6.2 ENE 5 6 1022.0 - 0.0 - Cloudy 10 - - - -
27/04:30am 6.3 ENE 5 6 1022.1 - 0.0 - Partly cloudy 6 - - - -
27/04:10am 6.8 ENE 4 6 1022.2 - 0.0 - Partly cloudy 3 - - - -
27/04:00am 7.3 ENE 3 6 1022.3 - 0.0 - Cloudy - - - - -
27/03:30am 7.1 NE 2 3 1022.5 - 0.0 - Partly cloudy 7 - - - -
27/03:00am 7.5 NE 6 7 1022.8 - 0.0 - Partly cloudy 10 - - - -
27/02:30am 8.3 N 1 4 1023.2 - 0.0 - - 10 - - - -
27/02:00am 7.9 CALM 0 4 1023.3 - 0.0 - - 10 - - - -
27/01:30am 7.1 E 2 6 1023.4 - 0.0 - Partly cloudy 10 - - - -
27/01:00am 6.4 ENE 5 6 1023.7 - 0.0 - - 10 - - - -
27/12:30am 6.6 ENE 4 7 1024.0 - 0.0 - - 10 - - - -
27/12:00am 6.6 NE 8 10 1024.1 - 0.0 - Mostly clear - - - - -
 
Date/Time
EST
Temp

°C
Wind Pressure Rain
since 9am
mm
Weather Cloud Vis
km
Sea
Height
m
Swell
Dir
 
Speed
knots
Gust
knots
hPa Trend Height
m
Period
s
Dir
26/11:30pm 4.9 ENE 8 9 1024.3 - 0.0 - - 10 - - - -
26/11:00pm 5.0 ENE 7 8 1024.6 - 0.0 - - 10 - - - -
26/10:30pm 5.0 ENE 8 8 1024.7 - 0.0 - - 10 - - - -
26/10:00pm 5.9 NE 7 7 1024.8 - 0.0 - - 10 - - - -
26/09:30pm 7.5 NE 7 8 1025.1 - 0.0 - - - - - - -
26/09:00pm 6.2 ENE 7 8 1025.3 - 0.0 - Partly cloudy 10 - - - -
26/08:30pm 6.7 NE 7 9 1025.7 - 0.0 - - 10 - - - -
26/08:00pm 7.3 NE 5 6 1025.7 - 0.0 - Partly cloudy 10 - - - -
26/07:30pm 8.0 NNE 5 6 1025.6 - 0.0 - - 10 - - - -
26/07:00pm 8.4 NE 6 7 1025.6 - 0.0 - - 10 - - - -
26/06:30pm 8.7 NE 4 5 1025.6 - 0.0 - - 10 - - - -
26/06:00pm 9.3 ENE 5 7 1025.5 - 0.0 - - 10 - - - -
26/05:30pm 11.9 WNW 6 6 1025.5 - 0.0 - Partly cloudy 10 - - - -
26/05:24pm 12.0 WNW 5 6 1025.5 - 0.0 - Partly cloudy 10 - - - -
26/05:00pm 12.9 WNW 4 6 1025.5 - 0.0 - Partly cloudy 10 - - - -
26/04:37pm 13.3 WNW 5 6 1025.6 - 0.0 - Partly cloudy 10 - - - -
26/04:30pm 13.6 WNW 5 7 1025.7 - 0.0 - Partly cloudy 10 - - - -
26/04:00pm 14.5 W 8 10 1025.7 - 0.0 - - 10 - - - -
26/03:30pm 14.9 W 9 12 1025.7 - 0.0 - Partly cloudy 10 - - - -
26/03:00pm 14.9 W 10 13 1025.6 - 0.0 - Mostly clear 10 - - - -
26/02:44pm 15.4 W 11 14 1025.7 - 0.0 - Partly cloudy 10 - - - -
26/02:30pm 15.5 W 11 14 1025.8 - 0.0 - Partly cloudy 10 - - - -
26/02:28pm 15.3 W 11 14 1025.8 - 0.0 - Partly cloudy 10 - - - -
26/02:00pm 15.3 W 11 13 1026.0 - 0.0 - Partly cloudy 10 - - - -
26/01:39pm 14.4 WSW 11 14 1026.1 - 0.0 - Partly cloudy 10 - - - -
26/01:30pm 14.5 WSW 10 12 1026.3 - 0.0 - Partly cloudy 10 - - - -
26/01:00pm 14.9 WSW 10 13 1026.5 - 0.0 - Partly cloudy 10 - - - -
26/12:51pm 15.1 WSW 10 13 1026.7 - 0.0 - Partly cloudy 10 - - - -
26/12:30pm 15.3 W 11 13 1026.9 - 0.0 - Partly cloudy 10 - - - -
26/12:00pm 14.7 W 11 13 1027.2 - 0.0 - Mostly clear 10 - - - -
26/11:30am 14.8 W 11 15 1027.7 - 0.0 - Partly cloudy 10 - - - -
26/11:00am 15.3 WNW 11 16 1028.0 - 0.0 - Partly cloudy 10 - - - -
26/10:30am 15.0 W 10 14 1028.3 - 0.0 - Partly cloudy 10 - - - -
26/10:14am 15.1 W 11 14 1028.3 - 0.0 - Partly cloudy 10 - - - -
26/10:00am 14.7 W 9 13 1028.3 - 0.0 - Partly cloudy 10 - - - -
26/09:32am 14.5 W 10 15 1028.3 - 0.0 - Partly cloudy 10 - - - -
26/09:30am 14.7 W 10 13 1028.2 - 0.0 - Partly cloudy 10 - - - -
26/09:00am 14.3 W 10 13 1028.2 - 0.0 - Mostly clear 10 - - - -
26/08:30am 13.3 W 9 11 1028.3 - 0.0 - Partly cloudy 10 - - - -

Other Formats:

Comma delimited format used in spreadsheet applications
http://www.bom.gov.au/fwo/IDV60701/IDV60701.94980.axf

JavaScript Object Notation format (JSON) in row-major order
http://www.bom.gov.au/fwo/IDV60701/IDV60701.94980.json